Time;durP1;ratioP1;P1;durP2;ratioP2;P2;SDS_P1;SDS_P2;PMS_P1;PMS_P2;Temp;Humidity;BMP_temperature;BMP_pressure;BME280_temperature;BME280_humidity;BME280_pressure;Samples;Min_cycle;Max_cycle;Signal;HPM_P1;HPM_P2
2022/04/01 00:00:46;;;;;;;3.53;2.28;;;1.00;99.90;;;;;;5119894;27;20079;-77
2022/04/01 00:03:12;;;;;;;5.72;2.08;;;1.10;99.90;;;;;;5105806;27;20039;-77
2022/04/01 00:05:40;;;;;;;4.20;2.00;;;1.10;99.90;;;;;;5108379;28;20046;-77
2022/04/01 00:08:08;;;;;;;5.95;2.00;;;1.10;99.90;;;;;;5088941;28;20256;-77
2022/04/01 00:10:33;;;;;;;10.40;3.63;;;1.10;99.90;;;;;;5109336;28;20147;-78
2022/04/01 00:12:59;;;;;;;2.70;1.17;;;1.10;99.90;;;;;;5092745;28;20459;-78
2022/04/01 00:15:24;;;;;;;3.22;1.58;;;1.00;99.90;;;;;;5110144;27;20051;-76
2022/04/01 00:17:50;;;;;;;2.00;0.98;;;1.10;99.90;;;;;;5130439;27;20047;-77
2022/04/01 00:20:19;;;;;;;3.50;1.30;;;1.20;99.90;;;;;;5131784;27;20038;-78
2022/04/01 00:22:45;;;;;;;4.45;1.95;;;1.10;99.90;;;;;;5094269;27;20093;-77
2022/04/01 00:25:11;;;;;;;2.15;1.10;;;1.10;99.90;;;;;;5092791;28;20044;-79
2022/04/01 00:27:37;;;;;;;5.78;2.08;;;1.20;99.90;;;;;;5090541;28;20621;-77
2022/04/01 00:30:04;;;;;;;2.05;1.17;;;1.10;99.90;;;;;;5100905;28;20044;-78
2022/04/01 00:32:30;;;;;;;7.18;2.80;;;1.20;99.90;;;;;;5106648;28;20166;-77
2022/04/01 00:34:56;;;;;;;3.50;1.85;;;1.20;99.90;;;;;;5095307;27;20042;-79
2022/04/01 00:37:22;;;;;;;2.15;1.45;;;1.10;99.90;;;;;;5108518;28;20028;-78
2022/04/01 00:39:47;;;;;;;4.93;2.08;;;1.10;99.90;;;;;;5100365;28;20119;-77
2022/04/01 00:42:13;;;;;;;5.45;1.15;;;1.10;99.90;;;;;;5099358;28;20482;-78
2022/04/01 00:44:40;;;;;;;4.60;1.33;;;1.10;99.90;;;;;;5099747;28;20044;-77
2022/04/01 00:47:11;;;;;;;3.30;1.20;;;1.10;99.90;;;;;;5093376;28;20036;-78
2022/04/01 00:49:38;;;;;;;5.57;1.33;;;1.10;99.90;;;;;;5106040;28;20039;-76
2022/04/01 00:52:06;;;;;;;1.90;1.00;;;1.00;99.90;;;;;;5106288;28;20039;-77
2022/04/01 00:54:34;;;;;;;2.97;1.45;;;1.00;99.90;;;;;;5099339;28;20040;-78
2022/04/01 00:57:00;;;;;;;3.38;1.75;;;1.10;99.90;;;;;;5094336;28;20126;-78
2022/04/01 00:59:25;;;;;;;6.55;2.67;;;1.00;99.90;;;;;;5094742;28;20263;-78
2022/04/01 01:01:52;;;;;;;7.57;1.10;;;1.10;99.90;;;;;;5108563;28;20031;-78
2022/04/01 01:04:19;;;;;;;3.90;1.13;;;1.00;99.90;;;;;;5097005;28;20044;-76
2022/04/01 01:06:51;;;;;;;1.50;0.90;;;1.00;99.90;;;;;;5098100;28;20494;-77
2022/04/01 01:09:18;;;;;;;1.38;1.00;;;1.00;99.90;;;;;;5096979;27;20035;-76
2022/04/01 01:11:45;;;;;;;3.65;1.40;;;1.00;99.90;;;;;;5103259;28;20043;-77
2022/04/01 01:14:13;;;;;;;1.52;0.90;;;1.00;99.90;;;;;;5104347;28;20073;-76
2022/04/01 01:16:44;;;;;;;1.48;1.13;;;0.90;99.90;;;;;;5090967;28;20128;-77
2022/04/01 01:19:12;;;;;;;4.57;2.38;;;1.00;99.90;;;;;;5102637;28;20051;-76
2022/04/01 01:21:40;;;;;;;3.70;1.08;;;1.00;99.90;;;;;;5089417;28;21873;-77
2022/04/01 01:24:08;;;;;;;2.97;1.33;;;1.00;99.90;;;;;;5117096;28;20055;-76
2022/04/01 01:26:36;;;;;;;1.75;1.10;;;0.90;99.90;;;;;;5098006;27;20062;-76
2022/04/01 01:29:04;;;;;;;4.38;1.13;;;0.90;99.90;;;;;;5107269;28;20083;-76
2022/04/01 01:31:29;;;;;;;2.03;1.48;;;0.80;99.90;;;;;;5116623;28;20053;-76
2022/04/01 01:33:56;;;;;;;4.38;1.25;;;0.90;99.90;;;;;;5118697;27;20035;-76
2022/04/01 01:36:23;;;;;;;2.50;1.33;;;0.90;99.90;;;;;;5098905;28;20032;-75
2022/04/01 01:38:49;;;;;;;2.75;1.63;;;0.90;99.90;;;;;;5118849;27;20082;-74
2022/04/01 01:41:14;;;;;;;3.50;1.63;;;0.80;99.90;;;;;;5116321;27;20038;-75
2022/04/01 01:43:41;;;;;;;4.95;1.13;;;0.90;99.90;;;;;;5120546;27;20043;-76
2022/04/01 01:46:07;;;;;;;7.53;1.90;;;0.90;99.90;;;;;;5109126;28;20638;-74
2022/04/01 01:48:33;;;;;;;1.75;1.02;;;0.90;99.90;;;;;;5101904;28;20048;-74
2022/04/01 01:56:27;;;;;;;2.65;1.92;;;1.00;99.90;;;;;;5105988;28;20043;-74
2022/04/01 01:58:54;;;;;;;8.30;2.33;;;1.00;99.90;;;;;;5096634;28;20397;-74
2022/04/01 02:01:20;;;;;;;4.45;1.35;;;1.10;99.90;;;;;;5111354;28;20051;-74
2022/04/01 02:03:46;;;;;;;5.30;1.20;;;1.00;99.90;;;;;;5101585;28;20401;-74
2022/04/01 02:06:13;;;;;;;3.50;1.67;;;1.10;99.90;;;;;;5111261;28;20115;-74
2022/04/01 02:08:38;;;;;;;3.60;1.55;;;1.10;99.90;;;;;;5109738;27;20043;-75
2022/04/01 02:11:05;;;;;;;3.53;1.40;;;1.10;99.90;;;;;;5113291;28;20035;-74
2022/04/01 02:13:31;;;;;;;3.65;2.40;;;1.10;99.90;;;;;;5110920;28;20538;-75
2022/04/01 02:15:57;;;;;;;3.78;1.42;;;1.20;99.90;;;;;;5108198;28;20063;-74
2022/04/01 02:18:23;;;;;;;6.13;2.13;;;1.20;99.90;;;;;;5102721;28;20036;-73
2022/04/01 02:20:50;;;;;;;3.22;1.83;;;1.20;99.90;;;;;;5075016;28;20043;-74
2022/04/01 02:23:16;;;;;;;3.90;1.73;;;1.20;99.90;;;;;;5110354;28;20406;-75
2022/04/01 02:25:42;;;;;;;3.00;2.05;;;1.30;99.90;;;;;;5111945;28;20490;-74
2022/04/01 02:28:09;;;;;;;3.97;2.45;;;1.20;99.90;;;;;;5102305;28;20040;-76
2022/04/01 02:30:34;;;;;;;4.35;1.13;;;1.20;99.90;;;;;;5098291;28;20418;-75
2022/04/01 02:33:00;;;;;;;2.63;1.20;;;1.20;99.90;;;;;;5091145;28;20032;-74
2022/04/01 02:35:26;;;;;;;5.25;1.80;;;1.30;99.90;;;;;;5092470;28;20044;-73
2022/04/01 02:37:52;;;;;;;1.67;1.13;;;1.30;99.90;;;;;;5100321;28;20686;-74
2022/04/01 02:40:17;;;;;;;3.80;1.20;;;1.30;99.90;;;;;;5097356;28;20054;-73
2022/04/01 02:42:43;;;;;;;6.07;2.00;;;1.20;99.90;;;;;;5096761;28;20036;-74
2022/04/01 02:45:09;;;;;;;7.75;1.40;;;1.30;99.90;;;;;;5102330;28;20039;-74
2022/04/01 02:47:35;;;;;;;2.50;1.02;;;1.30;99.90;;;;;;5109079;28;20118;-74
2022/04/01 02:50:01;;;;;;;4.65;1.10;;;1.20;99.90;;;;;;5107441;28;20130;-74
2022/04/01 02:52:27;;;;;;;2.97;1.08;;;1.30;99.90;;;;;;5109847;28;20051;-76
2022/04/01 02:54:53;;;;;;;2.03;0.80;;;1.30;99.90;;;;;;5099390;28;20035;-74
2022/04/01 02:57:20;;;;;;;2.88;1.67;;;1.30;99.90;;;;;;5094984;28;20081;-75
2022/04/01 02:59:47;;;;;;;5.18;1.17;;;1.30;99.90;;;;;;5100247;28;20058;-74
2022/04/01 03:02:14;;;;;;;7.18;2.20;;;1.20;99.90;;;;;;5093693;28;20564;-75
2022/04/01 03:04:40;;;;;;;3.22;1.20;;;1.30;99.90;;;;;;5095307;28;20139;-73
2022/04/01 03:07:06;;;;;;;19.35;2.50;;;1.30;99.90;;;;;;5092061;28;20777;-73
2022/04/01 03:09:32;;;;;;;3.15;1.35;;;1.30;99.90;;;;;;5093108;28;20122;-73
2022/04/01 03:11:58;;;;;;;4.90;1.67;;;1.20;99.90;;;;;;5101949;28;20100;-74
2022/04/01 03:14:24;;;;;;;4.78;2.60;;;1.30;99.90;;;;;;5095571;28;20040;-73
2022/04/01 03:16:49;;;;;;;7.80;1.00;;;1.20;99.90;;;;;;5106180;28;20042;-73
2022/04/01 03:19:16;;;;;;;5.50;1.52;;;1.30;99.90;;;;;;5106185;28;20040;-74
2022/04/01 03:21:42;;;;;;;1.70;0.98;;;1.20;99.90;;;;;;5106963;28;20505;-74
2022/04/01 03:24:11;;;;;;;5.90;1.90;;;1.30;99.90;;;;;;5104453;27;20063;-73
2022/04/01 03:26:39;;;;;;;1.93;1.33;;;1.20;99.90;;;;;;5107796;27;20052;-73
2022/04/01 03:29:06;;;;;;;4.45;1.85;;;1.30;99.90;;;;;;5104046;27;20305;-74
2022/04/01 03:31:33;;;;;;;4.95;1.98;;;1.30;99.90;;;;;;5109140;28;20077;-74
2022/04/01 03:33:59;;;;;;;3.33;1.27;;;1.30;99.90;;;;;;5108591;28;20432;-74
2022/04/01 03:36:25;;;;;;;1.95;0.93;;;1.30;99.90;;;;;;5092418;28;20085;-74
2022/04/01 03:38:51;;;;;;;3.63;1.10;;;1.40;99.90;;;;;;5104307;28;20119;-75
2022/04/01 03:41:19;;;;;;;2.83;0.80;;;1.40;99.90;;;;;;5109380;27;20398;-75
2022/04/01 03:43:45;;;;;;;6.25;1.15;;;1.50;99.90;;;;;;5102712;27;20035;-75
2022/04/01 03:46:14;;;;;;;3.60;1.50;;;1.50;99.90;;;;;;5109978;27;20955;-74
2022/04/01 03:48:52;;;;;;;6.35;2.33;;;1.40;99.90;;;;;;5108128;28;20048;-74
2022/04/01 03:51:19;;;;;;;1.67;1.00;;;1.20;99.90;;;;;;5104510;27;20057;-75
2022/04/01 03:54:05;;;;;;;6.68;1.58;;;0.90;99.90;;;;;;5085733;28;20611;-75
2022/04/01 03:56:36;;;;;;;2.22;1.30;;;1.00;99.90;;;;;;5097215;28;20424;-75
2022/04/01 03:59:09;;;;;;;5.00;1.10;;;1.00;99.90;;;;;;5089970;28;20463;-75
2022/04/01 04:01:36;;;;;;;4.82;1.20;;;1.00;99.90;;;;;;5089947;28;20048;-75
2022/04/01 04:04:03;;;;;;;6.30;1.48;;;1.00;99.90;;;;;;5092406;28;20056;-75
2022/04/01 04:06:28;;;;;;;4.28;1.30;;;1.00;99.90;;;;;;5089765;28;20051;-75
2022/04/01 04:08:57;;;;;;;23.65;2.08;;;1.00;99.90;;;;;;5092986;28;20783;-75
2022/04/01 04:11:28;;;;;;;5.88;0.95;;;1.10;99.90;;;;;;5089060;28;20553;-75
2022/04/01 04:13:55;;;;;;;7.70;1.27;;;1.10;99.90;;;;;;5073616;28;20128;-75
2022/04/01 04:16:27;;;;;;;2.65;1.08;;;1.00;99.90;;;;;;5091141;28;20035;-74
2022/04/01 04:19:00;;;;;;;9.13;2.00;;;1.10;99.90;;;;;;5101242;28;20088;-75
2022/04/01 04:21:39;;;;;;;5.15;1.38;;;1.10;99.90;;;;;;5110475;28;20430;-76
2022/04/01 04:24:08;;;;;;;4.13;1.90;;;1.00;99.90;;;;;;5098006;28;20059;-75
2022/04/01 04:26:45;;;;;;;5.05;1.48;;;1.00;99.90;;;;;;5088489;28;20055;-75
2022/04/01 04:29:13;;;;;;;6.40;1.75;;;1.10;99.90;;;;;;5097892;28;20051;-75
2022/04/01 04:31:46;;;;;;;2.22;1.48;;;1.10;99.90;;;;;;5103768;28;20044;-75
2022/04/01 04:34:17;;;;;;;5.10;1.45;;;1.10;99.90;;;;;;5090214;28;20052;-76
2022/04/01 04:36:43;;;;;;;6.03;1.02;;;1.10;99.90;;;;;;5102531;28;20123;-76
2022/04/01 04:39:32;;;;;;;3.70;1.33;;;1.10;99.90;;;;;;5089867;28;20154;-75
2022/04/01 04:41:58;;;;;;;2.70;1.20;;;1.10;99.90;;;;;;5095471;28;20044;-75
2022/04/01 04:44:27;;;;;;;5.65;2.40;;;1.10;99.90;;;;;;5099482;28;20032;-76
2022/04/01 04:46:55;;;;;;;2.85;0.77;;;1.10;99.90;;;;;;5109744;27;20036;-76
2022/04/01 04:49:21;;;;;;;4.72;1.20;;;1.20;99.90;;;;;;5106552;27;20105;-75
2022/04/01 04:51:48;;;;;;;3.78;0.82;;;1.10;99.90;;;;;;5116167;27;20027;-75
2022/04/01 04:54:14;;;;;;;5.22;1.02;;;1.20;99.90;;;;;;5109376;28;20497;-76
2022/04/01 04:56:41;;;;;;;4.47;1.35;;;1.20;99.90;;;;;;5091857;27;20048;-75
2022/04/01 04:59:09;;;;;;;3.80;1.05;;;1.20;99.90;;;;;;5105047;28;20122;-75
2022/04/01 05:02:05;;;;;;;4.53;2.28;;;1.20;99.90;;;;;;5105468;28;20081;-75
2022/04/01 05:04:48;;;;;;;6.45;2.10;;;1.20;99.90;;;;;;5096452;28;20052;-75
2022/04/01 05:07:19;;;;;;;9.98;2.55;;;1.20;99.90;;;;;;5103921;28;20436;-76
2022/04/01 05:10:03;;;;;;;4.68;0.88;;;1.20;99.90;;;;;;5088423;28;20092;-76
2022/04/01 05:12:34;;;;;;;4.75;1.35;;;1.20;99.90;;;;;;5093521;28;20054;-75
2022/04/01 05:15:09;;;;;;;1.55;0.98;;;1.20;99.90;;;;;;5091801;28;20111;-75
2022/04/01 05:17:36;;;;;;;5.60;1.95;;;1.20;99.90;;;;;;5088334;28;20136;-75
2022/04/01 05:20:11;;;;;;;3.47;1.00;;;1.20;99.90;;;;;;5093369;28;20052;-75
2022/04/01 05:22:48;;;;;;;4.65;1.15;;;1.30;99.90;;;;;;5105843;28;20054;-75
2022/04/01 05:25:17;;;;;;;2.25;0.80;;;1.20;99.90;;;;;;5109814;28;20172;-76
2022/04/01 05:27:48;;;;;;;2.35;1.00;;;1.30;99.90;;;;;;5107323;28;20071;-76
2022/04/01 05:30:18;;;;;;;10.70;2.42;;;1.30;99.90;;;;;;5102336;28;20051;-75
2022/04/01 05:33:06;;;;;;;3.22;0.70;;;1.30;99.90;;;;;;5106677;28;20033;-76
2022/04/01 05:35:38;;;;;;;10.05;2.28;;;1.30;99.90;;;;;;5110353;28;20051;-76
2022/04/01 05:38:05;;;;;;;2.95;1.45;;;1.30;99.90;;;;;;5096525;28;20047;-78
2022/04/01 05:40:31;;;;;;;2.70;1.20;;;1.30;99.90;;;;;;5109215;28;20036;-77
2022/04/01 05:42:59;;;;;;;4.97;1.63;;;1.30;99.90;;;;;;5105658;28;20074;-77
2022/04/01 05:45:29;;;;;;;8.38;2.35;;;1.30;99.90;;;;;;5105316;28;20084;-79
2022/04/01 05:47:56;;;;;;;7.53;2.42;;;1.30;99.90;;;;;;5097040;28;20152;-77
2022/04/01 05:50:22;;;;;;;4.13;1.00;;;1.30;99.90;;;;;;5097325;28;20048;-79
2022/04/01 05:52:50;;;;;;;2.25;1.00;;;1.30;99.90;;;;;;5092613;27;20048;-78
2022/04/01 05:55:20;;;;;;;5.13;1.42;;;1.40;99.90;;;;;;5103825;28;20035;-78
2022/04/01 05:57:45;;;;;;;5.25;1.42;;;1.20;99.90;;;;;;5105310;28;20099;-77
2022/04/01 06:00:12;;;;;;;3.13;1.77;;;1.30;99.90;;;;;;5110019;28;20409;-79
2022/04/01 06:02:53;;;;;;;4.85;2.10;;;1.40;99.90;;;;;;5110339;28;20044;-79
2022/04/01 06:05:47;;;;;;;10.15;2.80;;;1.40;99.90;;;;;;5089420;28;20040;-78
2022/04/01 06:08:44;;;;;;;2.63;1.30;;;1.30;99.90;;;;;;5090274;28;20051;-77
2022/04/01 06:11:35;;;;;;;7.50;1.85;;;1.30;99.90;;;;;;5096530;28;20320;-76
2022/04/01 06:14:09;;;;;;;4.20;1.83;;;1.40;99.90;;;;;;5089726;28;20432;-77
2022/04/01 06:16:47;;;;;;;7.10;1.42;;;1.50;99.90;;;;;;5069675;28;20056;-76
2022/04/01 06:19:24;;;;;;;3.78;1.55;;;1.60;99.90;;;;;;5096347;28;20058;-77
2022/04/01 06:22:03;;;;;;;6.20;1.35;;;1.50;99.90;;;;;;5104523;28;20036;-77
2022/04/01 06:24:50;;;;;;;4.07;1.60;;;1.50;99.90;;;;;;5107227;28;20127;-77
2022/04/01 06:27:25;;;;;;;1.60;0.80;;;1.60;99.90;;;;;;5106935;28;20114;-77
2022/04/01 06:30:11;;;;;;;2.92;1.67;;;1.50;99.90;;;;;;5103520;28;20093;-76
2022/04/01 06:32:52;;;;;;;2.00;1.02;;;1.50;99.90;;;;;;5106806;27;20506;-80
2022/04/01 06:35:24;;;;;;;4.72;1.27;;;1.50;99.90;;;;;;5094487;28;20410;-77
2022/04/01 06:38:01;;;;;;;3.47;1.88;;;1.60;99.90;;;;;;5092123;28;20490;-76
2022/04/01 06:40:51;;;;;;;5.18;1.13;;;1.60;99.90;;;;;;5101476;28;20036;-76
2022/04/01 06:43:17;;;;;;;5.47;1.30;;;1.50;99.90;;;;;;5105149;28;20038;-75
2022/04/01 06:45:43;;;;;;;5.57;1.50;;;1.60;99.90;;;;;;5105626;28;20043;-76
2022/04/01 06:48:08;;;;;;;4.35;1.65;;;1.60;99.90;;;;;;5103749;28;20040;-76
2022/04/01 06:50:34;;;;;;;4.63;2.10;;;1.60;99.90;;;;;;5101888;28;20040;-77
2022/04/01 06:53:00;;;;;;;4.97;2.40;;;1.60;99.90;;;;;;5105160;27;20061;-77
2022/04/01 06:55:26;;;;;;;3.10;1.27;;;1.70;99.90;;;;;;5099501;28;20383;-76
2022/04/01 06:57:52;;;;;;;3.78;1.10;;;1.70;99.90;;;;;;5099589;27;20040;-76
2022/04/01 07:00:19;;;;;;;1.65;0.85;;;1.70;99.90;;;;;;5100214;28;20046;-76
2022/04/01 07:02:45;;;;;;;10.27;2.33;;;1.80;99.90;;;;;;5106429;28;20035;-76
2022/04/01 07:05:11;;;;;;;2.65;1.13;;;1.70;99.90;;;;;;5108259;28;20593;-77
2022/04/01 07:07:41;;;;;;;3.67;1.02;;;1.80;99.90;;;;;;5103054;28;20185;-76
2022/04/01 07:10:10;;;;;;;5.63;1.50;;;1.80;99.90;;;;;;5103721;28;20051;-76
2022/04/01 07:12:37;;;;;;;3.42;1.42;;;1.80;99.90;;;;;;5101065;27;20137;-77
2022/04/01 07:15:03;;;;;;;1.80;1.10;;;1.80;99.90;;;;;;5099350;27;20036;-76
2022/04/01 07:17:29;;;;;;;2.75;1.38;;;1.90;99.90;;;;;;5088802;28;20527;-77
2022/04/01 07:19:55;;;;;;;5.28;1.90;;;1.80;99.90;;;;;;5088435;27;20044;-76
2022/04/01 07:22:21;;;;;;;3.20;1.55;;;1.90;99.90;;;;;;5098591;28;20043;-75
2022/04/01 07:24:47;;;;;;;2.60;0.70;;;1.90;99.90;;;;;;5100502;28;20062;-74
2022/04/01 07:27:12;;;;;;;3.85;1.33;;;1.90;99.90;;;;;;5103825;28;20040;-75
2022/04/01 07:29:38;;;;;;;6.57;1.58;;;2.00;99.90;;;;;;5103643;28;20032;-76
2022/04/01 07:34:50;;;;;;;3.83;1.27;;;2.00;99.90;;;;;;5110811;28;20051;-80
2022/04/01 07:37:16;;;;;;;2.78;1.13;;;2.10;99.90;;;;;;5105446;27;20083;-81
2022/04/01 07:39:42;;;;;;;4.90;1.50;;;2.20;99.90;;;;;;5103903;27;20071;-82
2022/04/01 07:42:08;;;;;;;5.00;2.20;;;2.20;99.90;;;;;;5113580;28;20100;-81
2022/04/01 07:44:34;;;;;;;2.35;0.95;;;2.30;99.90;;;;;;5105929;28;20054;-81
2022/04/01 07:47:00;;;;;;;1.35;1.00;;;2.30;99.90;;;;;;5107606;28;20040;-84
2022/04/01 07:49:26;;;;;;;3.38;0.95;;;2.40;99.90;;;;;;5074548;28;20120;-81
2022/04/01 07:51:52;;;;;;;2.38;0.80;;;2.40;99.90;;;;;;5108148;28;20043;-80
2022/04/01 07:54:17;;;;;;;2.25;0.80;;;2.40;99.90;;;;;;5108992;27;20445;-80
2022/04/01 07:56:43;;;;;;;1.55;1.00;;;2.40;99.90;;;;;;5104750;28;20036;-85
2022/04/01 07:59:10;;;;;;;6.70;1.17;;;2.40;99.90;;;;;;5111733;28;20039;-80
2022/04/01 08:01:36;;;;;;;3.80;1.13;;;2.40;99.90;;;;;;5110670;27;20060;-82
2022/04/01 08:04:02;;;;;;;2.58;0.50;;;2.40;99.90;;;;;;5116116;28;20048;-78
2022/04/01 08:06:27;;;;;;;3.55;0.60;;;2.50;99.90;;;;;;5113435;27;20043;-81
2022/04/01 08:08:55;;;;;;;2.80;0.82;;;2.50;99.90;;;;;;5101446;27;20036;-80
2022/04/01 08:11:22;;;;;;;1.73;0.85;;;2.50;99.90;;;;;;5107535;28;20103;-82
2022/04/01 08:13:48;;;;;;;25.08;3.22;;;2.50;99.90;;;;;;5110230;28;20042;-81
2022/04/01 08:16:14;;;;;;;3.35;0.80;;;2.40;99.90;;;;;;5105492;28;20039;-81
2022/04/01 08:18:39;;;;;;;3.28;1.40;;;2.40;99.90;;;;;;5106184;28;20485;-81
2022/04/01 08:21:05;;;;;;;0.68;0.50;;;2.40;99.90;;;;;;5110635;28;20039;-81
2022/04/01 08:23:34;;;;;;;1.63;1.27;;;2.40;99.90;;;;;;5105927;27;20474;-80
2022/04/01 08:26:01;;;;;;;2.22;1.20;;;2.40;99.90;;;;;;5089421;28;20040;-81
2022/04/01 08:28:27;;;;;;;2.42;1.45;;;2.40;99.90;;;;;;5096889;28;20065;-80
2022/04/01 08:30:53;;;;;;;5.40;1.30;;;2.20;99.90;;;;;;5096282;28;20035;-81
2022/04/01 08:33:20;;;;;;;6.22;1.50;;;2.10;99.90;;;;;;5108937;27;20027;-79
2022/04/01 08:35:46;;;;;;;2.60;1.00;;;2.20;99.90;;;;;;5111040;28;20047;-80
2022/04/01 08:38:12;;;;;;;3.63;1.10;;;2.20;99.90;;;;;;5110393;28;20118;-80
2022/04/01 08:40:38;;;;;;;7.60;1.40;;;2.20;99.90;;;;;;5107680;27;20545;-79
2022/04/01 08:43:04;;;;;;;3.03;2.38;;;2.30;99.90;;;;;;5102216;28;20042;-81
2022/04/01 08:45:33;;;;;;;3.67;1.60;;;2.40;99.90;;;;;;5106458;28;20036;-79
2022/04/01 08:47:59;;;;;;;0.98;0.65;;;2.40;99.90;;;;;;5101106;28;20035;-79
2022/04/01 08:50:25;;;;;;;6.15;1.95;;;2.20;99.90;;;;;;5110752;27;20098;-81
2022/04/01 08:52:50;;;;;;;12.48;1.00;;;2.20;99.90;;;;;;5112323;28;20496;-78
2022/04/01 08:55:16;;;;;;;2.92;1.15;;;2.20;99.90;;;;;;5117741;28;20050;-80
2022/04/01 08:57:43;;;;;;;2.58;1.08;;;2.20;99.90;;;;;;5106957;27;20087;-78
2022/04/01 09:00:14;;;;;;;3.63;1.58;;;2.40;99.90;;;;;;5109168;27;20509;-76
2022/04/01 09:02:41;;;;;;;2.67;0.82;;;2.40;99.90;;;;;;5092224;28;20090;-77
2022/04/01 09:05:08;;;;;;;3.63;1.30;;;2.50;99.90;;;;;;5075097;28;20055;-77
2022/04/01 09:07:34;;;;;;;4.22;0.98;;;2.50;99.90;;;;;;5098431;28;20127;-76
2022/04/01 09:10:07;;;;;;;5.20;2.13;;;2.50;99.90;;;;;;5089705;28;20131;-75
2022/04/01 09:12:35;;;;;;;2.97;1.40;;;2.60;99.90;;;;;;5091221;27;20387;-76
2022/04/01 09:15:02;;;;;;;2.38;1.27;;;2.70;99.90;;;;;;5112471;27;20052;-75
2022/04/01 09:17:42;;;;;;;0.98;0.90;;;2.80;99.90;;;;;;5099376;28;20039;-76
2022/04/01 09:20:09;;;;;;;1.67;1.10;;;2.80;99.90;;;;;;5109651;28;20044;-77
2022/04/01 09:22:35;;;;;;;3.80;1.20;;;2.90;99.90;;;;;;5112778;28;20046;-78
2022/04/01 09:25:08;;;;;;;1.92;1.30;;;2.90;99.90;;;;;;5108735;27;20063;-78
2022/04/01 09:27:55;;;;;;;5.40;1.52;;;3.10;99.90;;;;;;5114509;27;20072;-77
2022/04/01 09:30:31;;;;;;;4.13;1.73;;;2.90;99.90;;;;;;5108800;28;20067;-75
2022/04/01 09:33:01;;;;;;;2.22;0.85;;;3.20;99.90;;;;;;5109717;28;20036;-77
2022/04/01 09:35:31;;;;;;;2.25;1.10;;;2.90;99.90;;;;;;5108956;28;20131;-78
2022/04/01 09:38:03;;;;;;;1.58;1.15;;;3.00;99.90;;;;;;5091033;28;20051;-79
2022/04/01 09:40:29;;;;;;;5.05;1.63;;;3.00;99.90;;;;;;5096504;28;20048;-80
2022/04/01 09:42:57;;;;;;;2.90;1.45;;;2.80;99.90;;;;;;5094464;28;20036;-78
2022/04/01 09:45:28;;;;;;;4.22;1.45;;;2.90;99.90;;;;;;5121074;27;20077;-77
2022/04/01 09:48:10;;;;;;;5.03;1.88;;;2.80;99.90;;;;;;5097346;28;20067;-79
2022/04/01 09:50:38;;;;;;;4.03;1.10;;;2.80;99.90;;;;;;5098562;28;20044;-78
2022/04/01 09:53:15;;;;;;;7.57;1.65;;;2.70;99.90;;;;;;5093192;28;20382;-78
2022/04/01 09:55:44;;;;;;;11.43;2.10;;;2.70;99.90;;;;;;5104464;28;20059;-78
2022/04/01 09:58:11;;;;;;;3.73;1.20;;;2.70;99.90;;;;;;5095467;28;20044;-72
2022/04/01 10:00:38;;;;;;;3.67;1.55;;;3.00;99.90;;;;;;5107823;28;20631;-78
2022/04/01 10:03:05;;;;;;;1.83;1.10;;;3.10;99.90;;;;;;5105004;28;20040;-76
2022/04/01 10:05:32;;;;;;;2.28;1.75;;;3.20;99.90;;;;;;5118441;27;20066;-77
2022/04/01 10:08:00;;;;;;;4.28;2.85;;;3.20;99.90;;;;;;5105337;27;20048;-79
2022/04/01 10:10:26;;;;;;;2.50;2.15;;;3.20;99.90;;;;;;5104082;28;20047;-80
2022/04/01 10:12:55;;;;;;;2.78;1.65;;;3.30;99.90;;;;;;5111164;28;20532;-78
2022/04/01 10:15:21;;;;;;;3.38;1.10;;;3.00;99.90;;;;;;5115923;28;20070;-76
2022/04/01 10:17:49;;;;;;;4.70;1.48;;;3.30;99.90;;;;;;5113717;28;20036;-75
2022/04/01 10:20:17;;;;;;;3.58;2.13;;;3.50;99.90;;;;;;5099877;27;20042;-75
2022/04/01 10:22:42;;;;;;;5.13;1.80;;;3.50;99.90;;;;;;5102171;27;20050;-76
2022/04/01 10:25:16;;;;;;;2.58;1.80;;;3.60;99.90;;;;;;5100103;28;20135;-76
2022/04/01 10:27:53;;;;;;;5.15;1.85;;;3.50;99.90;;;;;;5115454;27;20047;-77
2022/04/01 10:30:23;;;;;;;1.92;1.35;;;3.60;99.90;;;;;;5113723;27;20067;-77
2022/04/01 10:32:48;;;;;;;2.00;1.80;;;3.70;99.90;;;;;;5102647;28;20048;-78
2022/04/01 10:35:29;;;;;;;13.57;1.67;;;3.70;99.90;;;;;;5099199;28;20043;-76
2022/04/01 10:38:05;;;;;;;5.30;1.50;;;3.90;99.90;;;;;;5108212;28;20042;-77
2022/04/01 10:40:33;;;;;;;2.97;0.93;;;3.90;99.90;;;;;;5112447;28;20043;-77
2022/04/01 10:43:09;;;;;;;3.30;1.40;;;4.00;99.90;;;;;;5109625;28;20362;-77
2022/04/01 10:45:38;;;;;;;2.70;1.20;;;4.10;99.90;;;;;;5103671;28;20050;-78
2022/04/01 10:54:02;;;;;;;4.28;1.38;;;4.20;99.90;;;;;;5109387;28;20039;-77
2022/04/01 10:56:30;;;;;;;2.20;0.73;;;4.20;99.90;;;;;;5101490;28;20137;-74
2022/04/01 10:59:09;;;;;;;3.20;0.85;;;4.10;99.90;;;;;;5094091;27;20518;-78
2022/04/01 11:02:01;;;;;;;2.10;0.80;;;4.10;99.90;;;;;;5110984;27;20039;-76
2022/04/01 11:04:32;;;;;;;3.40;1.35;;;4.20;99.90;;;;;;5094986;28;20055;-76
2022/04/01 11:07:02;;;;;;;2.47;0.50;;;4.20;99.90;;;;;;5097866;28;20036;-76
2022/04/01 11:10:07;;;;;;;4.03;0.90;;;4.30;99.90;;;;;;5083020;28;20583;-76
2022/04/01 11:12:48;;;;;;;1.95;0.70;;;4.50;99.90;;;;;;5091001;28;20048;-75
2022/04/01 11:15:17;;;;;;;1.63;1.33;;;4.50;99.90;;;;;;5092387;28;20411;-76
2022/04/01 11:17:51;;;;;;;3.88;0.98;;;4.30;99.90;;;;;;5093265;28;20083;-75
2022/04/01 11:20:21;;;;;;;4.47;1.05;;;4.50;99.90;;;;;;5099472;28;20118;-74
2022/04/01 11:22:59;;;;;;;1.77;0.85;;;4.60;99.90;;;;;;5115858;27;20107;-74
2022/04/01 11:25:25;;;;;;;11.55;2.25;;;4.60;99.90;;;;;;5110310;27;20495;-78
2022/04/01 11:28:06;;;;;;;1.88;0.85;;;4.40;99.90;;;;;;5107168;27;20052;-77
2022/04/01 11:30:41;;;;;;;0.65;0.40;;;4.40;99.90;;;;;;5072117;28;20051;-77
2022/04/01 11:33:18;;;;;;;0.73;0.55;;;4.80;99.90;;;;;;5073397;28;20048;-78
2022/04/01 11:35:53;;;;;;;3.70;1.02;;;4.70;99.90;;;;;;5093210;28;20051;-78
2022/04/01 11:38:24;;;;;;;1.25;0.60;;;4.60;99.90;;;;;;5091410;28;20067;-78
2022/04/01 11:40:54;;;;;;;1.52;0.60;;;4.60;99.90;;;;;;5091199;28;20491;-77
2022/04/01 11:43:21;;;;;;;0.50;0.50;;;4.70;99.90;;;;;;5102798;27;20153;-77
2022/04/01 11:45:57;;;;;;;0.95;0.50;;;4.80;99.90;;;;;;5110260;27;20035;-75
2022/04/01 11:48:28;;;;;;;2.45;0.77;;;4.60;99.90;;;;;;5096788;28;20461;-76
2022/04/01 11:50:57;;;;;;;1.95;1.00;;;4.80;99.90;;;;;;5110538;28;20097;-82
2022/04/01 11:53:27;;;;;;;2.47;0.57;;;4.60;99.90;;;;;;5098107;27;20129;-77
2022/04/01 11:55:53;;;;;;;0.98;0.32;;;4.90;99.90;;;;;;5088981;28;20127;-77
2022/04/01 11:58:20;;;;;;;2.38;0.52;;;4.90;99.90;;;;;;5105697;28;20140;-78
2022/04/01 12:00:48;;;;;;;4.80;0.90;;;5.00;99.90;;;;;;5102255;28;20036;-77
2022/04/01 12:03:14;;;;;;;4.28;1.10;;;5.00;99.90;;;;;;5105116;28;20035;-77
2022/04/01 12:05:40;;;;;;;1.92;0.90;;;4.90;99.90;;;;;;5110845;28;20400;-77
2022/04/01 12:10:55;;;;;;;3.42;1.25;;;4.90;99.90;;;;;;5089475;28;20148;-77
2022/04/01 12:13:21;;;;;;;1.67;1.13;;;4.70;99.90;;;;;;5094756;28;20076;-77
2022/04/01 12:15:49;;;;;;;5.82;1.05;;;5.00;99.90;;;;;;5105045;28;20088;-76
2022/04/01 12:18:17;;;;;;;4.70;1.23;;;4.90;99.90;;;;;;5097157;27;20055;-77
2022/04/01 12:20:46;;;;;;;0.77;0.57;;;5.00;99.90;;;;;;5110192;28;20126;-77
2022/04/01 12:23:12;;;;;;;5.05;2.05;;;5.10;99.90;;;;;;5109472;27;20049;-77
2022/04/01 12:25:40;;;;;;;2.28;0.98;;;5.00;99.90;;;;;;5101655;28;20501;-78
2022/04/01 12:28:11;;;;;;;5.55;0.90;;;4.90;99.90;;;;;;5108379;27;20035;-78
2022/04/01 12:30:48;;;;;;;4.72;1.77;;;5.00;99.90;;;;;;5092136;28;20374;-78
2022/04/01 12:33:30;;;;;;;10.02;1.35;;;4.90;99.90;;;;;;5092329;28;20044;-80
2022/04/01 12:36:01;;;;;;;3.25;0.80;;;5.00;99.90;;;;;;5110316;28;20450;-78
2022/04/01 12:38:32;;;;;;;4.43;1.48;;;4.70;99.90;;;;;;5100151;28;20401;-79
2022/04/01 12:41:06;;;;;;;2.47;1.45;;;4.70;99.90;;;;;;5109325;28;20075;-79
2022/04/01 12:43:45;;;;;;;4.32;1.83;;;4.70;99.90;;;;;;5091403;28;20145;-78
2022/04/01 12:46:19;;;;;;;17.02;3.28;;;4.70;99.90;;;;;;5101252;28;20050;-77
2022/04/01 12:48:52;;;;;;;3.97;1.58;;;4.70;99.90;;;;;;5104011;28;20083;-77
2022/04/01 12:51:30;;;;;;;3.92;1.30;;;4.60;99.90;;;;;;5091848;28;20130;-78
2022/04/01 12:54:06;;;;;;;4.13;1.58;;;4.70;99.90;;;;;;5109084;27;20567;-79
2022/04/01 12:56:43;;;;;;;2.83;1.15;;;4.90;99.90;;;;;;5089498;27;20482;-79
2022/04/01 12:59:13;;;;;;;3.00;1.30;;;5.00;99.90;;;;;;5117104;27;20072;-77
2022/04/01 13:01:41;;;;;;;2.90;0.80;;;5.10;99.90;;;;;;5096075;28;20051;-79
2022/04/01 13:04:19;;;;;;;1.77;0.60;;;4.90;99.90;;;;;;5106786;28;20153;-79
2022/04/01 13:07:04;;;;;;;1.60;1.13;;;4.90;99.90;;;;;;5107032;28;20089;-80
2022/04/01 13:09:31;;;;;;;2.03;1.13;;;4.90;99.90;;;;;;5107516;28;20047;-78
2022/04/01 13:11:58;;;;;;;5.25;1.08;;;5.30;99.90;;;;;;5109327;28;20118;-81
2022/04/01 13:14:25;;;;;;;13.90;2.30;;;5.20;99.90;;;;;;5106992;28;20043;-80
2022/04/01 13:16:53;;;;;;;1.77;0.95;;;4.80;99.90;;;;;;5088544;28;20032;-79
2022/04/01 13:19:23;;;;;;;2.53;1.10;;;4.90;99.90;;;;;;5093254;28;20128;-80
2022/04/01 13:21:50;;;;;;;5.03;2.08;;;4.90;99.90;;;;;;5111067;28;20040;-81
2022/04/01 13:24:21;;;;;;;5.22;1.60;;;4.90;99.90;;;;;;5094644;27;20052;-79
2022/04/01 13:26:47;;;;;;;1.95;0.85;;;4.90;99.90;;;;;;5088443;28;20043;-78